Time;durP1;ratioP1;P1;durP2;ratioP2;P2;SDS_P1;SDS_P2;PMS_P1;PMS_P2;Temp;Humidity;BMP_temperature;BMP_pressure;BME280_temperature;BME280_humidity;BME280_pressure;Samples;Min_cycle;Max_cycle;Signal;HPM_P1;HPM_P2
2023/08/14 00:00:07;;;;;;;0.30;0.30;;;;;;;19.84;100.00;96938.78;29395;243;63000;-64
2023/08/14 00:00:39;;;;;;;0.30;0.30;;;;;;;19.84;100.00;96943.50;29395;283;63009;-55
2023/08/14 00:01:10;;;;;;;0.30;0.30;;;;;;;19.83;100.00;96937.19;29395;203;63012;-55
2023/08/14 00:01:42;;;;;;;0.30;0.30;;;;;;;19.82;100.00;96938.34;29395;203;63009;-54
2023/08/14 00:02:13;;;;;;;0.30;0.30;;;;;;;19.81;100.00;96934.00;29395;217;63004;-62
2023/08/14 00:02:45;;;;;;;0.30;0.30;;;;;;;19.80;100.00;96943.41;29395;202;63009;-54
2023/08/14 00:03:18;;;;;;;0.30;0.30;;;;;;;19.81;100.00;96941.44;29394;237;64009;-54
2023/08/14 00:03:51;;;;;;;0.30;0.30;;;;;;;19.81;100.00;96944.19;29395;229;63009;-54
2023/08/14 00:04:22;;;;;;;0.30;0.30;;;;;;;19.80;100.00;96943.41;29395;214;63004;-63
2023/08/14 00:04:54;;;;;;;0.30;0.30;;;;;;;19.79;100.00;96941.78;29395;242;63017;-54
2023/08/14 00:05:26;;;;;;;0.30;0.30;;;;;;;19.79;100.00;96947.31;29395;222;63004;-55
2023/08/14 00:05:58;;;;;;;0.30;0.30;;;;;;;19.79;100.00;96944.56;29395;240;63009;-53
2023/08/14 00:06:29;;;;;;;0.30;0.30;;;;;;;19.79;100.00;96947.31;29394;214;64009;-54
2023/08/14 00:07:00;;;;;;;0.30;0.30;;;;;;;19.80;100.00;96948.09;29395;220;63009;-63
2023/08/14 00:07:31;;;;;;;0.30;0.30;;;;;;;19.80;100.00;96943.41;29395;251;63005;-54
2023/08/14 00:08:03;;;;;;;0.30;0.30;;;;;;;19.79;100.00;96952.00;29394;216;64012;-55
2023/08/14 00:08:35;;;;;;;0.30;0.30;;;;;;;19.79;100.00;96947.31;29395;197;63005;-54
2023/08/14 00:09:06;;;;;;;0.30;0.30;;;;;;;19.78;100.00;96948.47;29395;224;63009;-54
2023/08/14 00:09:37;;;;;;;0.30;0.30;;;;;;;19.78;100.00;96950.41;29395;196;63005;-54
2023/08/14 00:10:11;;;;;;;0.30;0.30;;;;;;;19.77;100.00;96949.59;29395;196;63009;-64
2023/08/14 00:10:43;;;;;;;0.30;0.30;;;;;;;19.77;100.00;96949.59;29395;197;63004;-62
2023/08/14 00:11:14;;;;;;;0.30;0.30;;;;;;;19.77;100.00;96948.81;29395;230;63009;-64
2023/08/14 00:11:46;;;;;;;0.30;0.30;;;;;;;19.77;100.00;96951.56;29395;207;63004;-54
2023/08/14 00:12:17;;;;;;;0.30;0.30;;;;;;;19.78;100.00;96947.66;29395;205;63008;-63
2023/08/14 00:12:48;;;;;;;0.30;0.30;;;;;;;19.78;100.00;96951.22;29394;197;64008;-54
2023/08/14 00:13:21;;;;;;;0.30;0.30;;;;;;;19.79;100.00;96952.81;29395;237;63009;-63
2023/08/14 00:13:54;;;;;;;0.30;0.30;;;;;;;19.80;100.00;96942.59;29395;197;63005;-55
2023/08/14 00:14:26;;;;;;;0.30;0.30;;;;;;;19.80;100.00;96948.91;29395;197;63009;-64
2023/08/14 00:14:57;;;;;;;0.30;0.30;;;;;;;19.80;100.00;96946.16;29395;228;63005;-63
2023/08/14 00:15:28;;;;;;;0.30;0.30;;;;;;;19.80;100.00;96954.41;29394;199;64013;-64
2023/08/14 00:15:59;;;;;;;0.30;0.30;;;;;;;19.80;100.00;96948.91;29395;280;63005;-64
2023/08/14 00:16:34;;;;;;;0.30;0.30;;;;;;;19.80;100.00;96942.59;29395;202;63009;-55
2023/08/14 00:17:05;;;;;;;0.30;0.30;;;;;;;19.80;100.00;96954.41;29395;247;63005;-63
2023/08/14 00:17:39;;;;;;;0.30;0.30;;;;;;;19.80;100.00;96948.91;29395;215;63009;-64
2023/08/14 00:18:10;;;;;;;0.30;0.30;;;;;;;19.80;100.00;96948.91;29395;243;63004;-55
2023/08/14 00:18:41;;;;;;;0.30;0.30;;;;;;;19.81;100.00;96945.00;29395;236;63009;-65
2023/08/14 00:19:12;;;;;;;0.30;0.30;;;;;;;19.83;100.00;96950.97;29395;217;63004;-55
2023/08/14 00:19:44;;;;;;;0.30;0.30;;;;;;;19.83;100.00;96945.44;29395;222;63009;-62
2023/08/14 00:20:16;;;;;;;0.30;0.30;;;;;;;19.84;100.00;96951.75;29394;202;64008;-54
2023/08/14 00:20:47;;;;;;;0.30;0.30;;;;;;;19.83;100.00;96942.69;29395;197;63009;-54
2023/08/14 00:21:19;;;;;;;0.30;0.30;;;;;;;19.84;100.00;96943.50;29395;249;63005;-63
2023/08/14 00:21:50;;;;;;;0.30;0.30;;;;;;;19.83;100.00;96942.69;29395;203;63020;-54
2023/08/14 00:22:22;;;;;;;0.30;0.30;;;;;;;19.83;100.00;96945.44;29395;255;63005;-54
2023/08/14 00:22:53;;;;;;;0.30;0.30;;;;;;;19.82;100.00;96941.09;29395;251;63009;-54
2023/08/14 00:23:24;;;;;;;0.30;0.30;;;;;;;19.83;100.00;96942.69;29395;197;63005;-55
2023/08/14 00:23:56;;;;;;;0.30;0.30;;;;;;;19.83;100.00;96944.66;29394;242;64013;-54
2023/08/14 00:24:27;;;;;;;0.30;0.30;;;;;;;19.81;100.00;96938.69;29395;235;63005;-54
2023/08/14 00:24:59;;;;;;;0.30;0.30;;;;;;;19.80;100.00;96945.34;29395;215;63009;-62
2023/08/14 00:25:30;;;;;;;0.30;0.30;;;;;;;19.78;100.00;96945.69;29394;202;64020;-54
2023/08/14 00:26:01;;;;;;;0.30;0.30;;;;;;;19.78;100.00;96931.13;29395;234;63009;-54
2023/08/14 00:26:33;;;;;;;0.30;0.30;;;;;;;19.78;100.00;96939.41;29395;239;63008;-54
2023/08/14 00:27:05;;;;;;;0.30;0.30;;;;;;;19.77;100.00;96943.31;29394;216;64013;-54
2023/08/14 00:27:36;;;;;;;0.30;0.30;;;;;;;19.75;100.00;96946.44;29395;262;63004;-54
2023/08/14 00:28:08;;;;;;;0.30;0.30;;;;;;;19.75;100.00;96946.44;29395;212;63008;-54
2023/08/14 00:28:39;;;;;;;0.30;0.30;;;;;;;19.78;100.00;96942.94;29395;257;63005;-54
2023/08/14 00:29:10;;;;;;;0.30;0.30;;;;;;;19.76;100.00;96945.25;29395;224;63009;-54
2023/08/14 00:29:41;;;;;;;0.30;0.30;;;;;;;19.77;100.00;96946.84;29395;257;63005;-54
2023/08/14 00:30:13;;;;;;;0.30;0.30;;;;;;;19.77;100.00;96948.81;29395;214;63009;-55
2023/08/14 00:30:44;;;;;;;0.30;0.30;;;;;;;19.76;100.00;96948.00;29395;211;63005;-63
2023/08/14 00:31:16;;;;;;;0.30;0.30;;;;;;;19.76;100.00;96948.00;29394;223;64013;-55
2023/08/14 00:31:48;;;;;;;0.30;0.30;;;;;;;19.77;100.00;96949.59;29394;214;64004;-54
2023/08/14 00:32:19;;;;;;;0.30;0.30;;;;;;;19.76;100.00;96942.50;29395;214;63009;-54
2023/08/14 00:32:50;;;;;;;0.30;0.30;;;;;;;19.77;100.00;96943.31;29394;207;64009;-54
2023/08/14 00:33:22;;;;;;;0.30;0.30;;;;;;;19.77;100.00;96949.59;29395;215;63009;-54
2023/08/14 00:33:57;;;;;;;0.30;0.30;;;;;;;19.75;100.00;96944.44;29395;226;63004;-55
2023/08/14 00:34:28;;;;;;;0.30;0.30;;;;;;;19.77;100.00;96944.09;29395;269;63008;-54
2023/08/14 00:34:59;;;;;;;0.30;0.30;;;;;;;19.77;100.00;96948.81;29395;198;63004;-54
2023/08/14 00:35:30;;;;;;;0.30;0.30;;;;;;;19.77;100.00;96943.31;29395;197;63018;-54
2023/08/14 00:36:01;;;;;;;0.30;0.30;;;;;;;19.77;100.00;96951.56;29395;204;63005;-54
2023/08/14 00:36:32;;;;;;;0.30;0.30;;;;;;;19.77;100.00;96948.81;29395;230;63009;-55
2023/08/14 00:37:05;;;;;;;0.30;0.30;;;;;;;19.77;100.00;96954.31;29394;203;64009;-54
2023/08/14 00:37:42;;;;;;;0.30;0.30;;;;;;;19.76;100.00;96953.50;29394;213;64013;-54
2023/08/14 00:38:13;;;;;;;0.30;0.30;;;;;;;19.75;100.00;96952.72;29395;226;63008;-54
2023/08/14 00:38:47;;;;;;;0.30;0.30;;;;;;;19.75;100.00;96946.44;29395;229;63009;-54
2023/08/14 00:39:19;;;;;;;0.30;0.30;;;;;;;19.76;100.00;96953.50;29395;231;63004;-54
2023/08/14 00:39:50;;;;;;;0.30;0.30;;;;;;;19.77;100.00;96946.84;29395;235;63009;-54
2023/08/14 00:40:24;;;;;;;0.30;0.30;;;;;;;19.77;100.00;96948.81;29395;210;63004;-54
2023/08/14 00:40:58;;;;;;;0.30;0.30;;;;;;;19.78;100.00;96942.16;29395;223;63009;-54
2023/08/14 00:41:30;;;;;;;0.30;0.30;;;;;;;19.77;100.00;96946.84;29395;224;63004;-55
2023/08/14 00:42:02;;;;;;;0.30;0.30;;;;;;;19.79;100.00;96952.00;29394;213;64008;-54
2023/08/14 00:42:35;;;;;;;0.30;0.30;;;;;;;19.78;100.00;96945.69;29394;203;64009;-54
2023/08/14 00:43:06;;;;;;;0.30;0.30;;;;;;;19.78;100.00;96940.19;29395;262;63009;-54
2023/08/14 00:43:39;;;;;;;0.30;0.30;;;;;;;19.80;100.00;96943.41;29395;243;63005;-55
2023/08/14 00:44:10;;;;;;;0.30;0.30;;;;;;;19.80;100.00;96946.16;29395;199;63009;-55
2023/08/14 00:44:42;;;;;;;0.30;0.30;;;;;;;19.81;100.00;96944.19;29395;218;63005;-54
2023/08/14 00:45:14;;;;;;;0.30;0.30;;;;;;;19.81;100.00;96938.69;29395;230;63009;-54
2023/08/14 00:45:46;;;;;;;0.30;0.30;;;;;;;19.80;100.00;96937.91;29395;259;63005;-54
2023/08/14 00:46:17;;;;;;;0.30;0.30;;;;;;;19.82;100.00;96951.31;29395;235;63009;-54
2023/08/14 00:46:49;;;;;;;0.30;0.30;;;;;;;19.81;100.00;96945.00;29395;210;63004;-54
2023/08/14 00:47:20;;;;;;;0.30;0.30;;;;;;;19.82;100.00;96943.84;29395;238;63009;-54
2023/08/14 00:47:59;;;;;;;0.30;0.30;;;;;;;19.81;100.00;96945.00;29394;210;64009;-63
2023/08/14 00:48:31;;;;;;;0.30;0.30;;;;;;;19.83;100.00;96945.44;29395;222;63009;-54
2023/08/14 00:49:03;;;;;;;0.30;0.30;;;;;;;19.82;100.00;96943.84;29394;226;64004;-54
2023/08/14 00:49:34;;;;;;;0.30;0.30;;;;;;;19.83;100.00;96941.91;29395;234;63008;-54
2023/08/14 00:50:07;;;;;;;0.30;0.30;;;;;;;19.83;100.00;96948.22;29395;210;63005;-54
2023/08/14 00:50:39;;;;;;;0.30;0.30;;;;;;;19.83;100.00;96948.22;29395;255;63019;-63
2023/08/14 00:51:11;;;;;;;0.30;0.30;;;;;;;19.84;100.00;96949.81;29395;205;63005;-54
2023/08/14 00:51:43;;;;;;;0.30;0.30;;;;;;;19.84;100.00;96943.50;29395;224;63009;-54
2023/08/14 00:52:14;;;;;;;0.30;0.30;;;;;;;19.84;100.00;96952.56;29395;217;63005;-54
2023/08/14 00:52:48;;;;;;;0.30;0.30;;;;;;;19.83;100.00;96942.69;29395;227;63025;-54
2023/08/14 00:53:20;;;;;;;0.30;0.30;;;;;;;19.84;100.00;96941.56;29394;234;64009;-54
2023/08/14 00:53:53;;;;;;;0.30;0.30;;;;;;;19.85;100.00;96943.16;29395;208;63023;-53
2023/08/14 00:54:24;;;;;;;0.30;0.30;;;;;;;19.85;100.00;96937.66;29395;242;63014;-55
2023/08/14 00:54:56;;;;;;;0.30;0.30;;;;;;;19.85;100.00;96939.59;29395;221;63009;-54
2023/08/14 00:55:27;;;;;;;0.30;0.30;;;;;;;19.85;100.00;96934.88;29395;245;63017;-54
2023/08/14 00:56:01;;;;;;;0.30;0.30;;;;;;;19.87;100.00;96929.84;29395;200;63009;-54
2023/08/14 00:56:33;;;;;;;0.30;0.30;;;;;;;19.88;100.00;96933.38;29395;203;63004;-55
2023/08/14 00:57:05;;;;;;;0.30;0.30;;;;;;;19.88;100.00;96925.12;29395;202;63008;-54
2023/08/14 00:57:38;;;;;;;0.30;0.30;;;;;;;19.89;100.00;96924.78;29395;224;63011;-54
2023/08/14 00:58:09;;;;;;;0.30;0.30;;;;;;;19.89;100.00;96935.78;29395;199;63009;-55
2023/08/14 00:58:41;;;;;;;0.40;0.40;;;;;;;19.90;100.00;96920.88;29394;284;64009;-54
2023/08/14 00:59:12;;;;;;;0.30;0.30;;;;;;;19.92;100.00;96926.84;29395;240;63009;-54
2023/08/14 00:59:44;;;;;;;0.30;0.30;;;;;;;19.92;100.00;96918.56;29395;218;63005;-54
2023/08/14 01:00:15;;;;;;;0.30;0.30;;;;;;;19.93;100.00;96920.16;29395;256;63009;-55
2023/08/14 01:00:47;;;;;;;0.30;0.30;;;;;;;19.93;100.00;96925.69;29395;242;63005;-54
2023/08/14 01:01:19;;;;;;;0.30;0.30;;;;;;;19.93;100.00;96931.19;29395;222;63009;-54
2023/08/14 01:01:51;;;;;;;0.30;0.30;;;;;;;19.93;100.00;96922.91;29395;206;63004;-54
2023/08/14 01:02:24;;;;;;;0.30;0.30;;;;;;;19.94;100.00;96921.78;29395;241;63023;-54
2023/08/14 01:02:56;;;;;;;0.30;0.30;;;;;;;19.93;100.00;96925.69;29395;214;63004;-54
2023/08/14 01:03:28;;;;;;;0.30;0.30;;;;;;;19.93;100.00;96922.91;29395;218;63008;-54
2023/08/14 01:03:59;;;;;;;0.30;0.30;;;;;;;19.93;100.00;96925.69;29394;197;64008;-54
2023/08/14 01:04:31;;;;;;;0.30;0.30;;;;;;;19.93;100.00;96924.88;29395;249;63008;-55
2023/08/14 01:05:02;;;;;;;0.30;0.30;;;;;;;19.93;100.00;96914.66;29395;256;63004;-54
2023/08/14 01:05:34;;;;;;;0.30;0.30;;;;;;;19.95;100.00;96917.88;29395;209;63009;-62
2023/08/14 01:06:07;;;;;;;0.30;0.30;;;;;;;19.96;100.00;96919.47;29395;226;63014;-63
2023/08/14 01:06:38;;;;;;;0.30;0.30;;;;;;;19.96;100.00;96918.66;29395;204;63009;-54
2023/08/14 01:07:09;;;;;;;0.30;0.30;;;;;;;19.95;100.00;96914.31;29395;248;63005;-62
2023/08/14 01:07:42;;;;;;;0.30;0.30;;;;;;;19.95;100.00;96928.06;29395;243;63009;-54
2023/08/14 01:08:14;;;;;;;0.30;0.30;;;;;;;19.94;100.00;96910.75;29395;267;63005;-55
2023/08/14 01:08:46;;;;;;;0.30;0.30;;;;;;;19.96;100.00;96913.16;29395;218;63025;-55
2023/08/14 01:09:17;;;;;;;0.30;0.30;;;;;;;19.94;100.00;96910.75;29394;214;64009;-62
2023/08/14 01:09:49;;;;;;;0.30;0.30;;;;;;;19.95;100.00;96920.63;29395;208;63009;-54
2023/08/14 01:10:20;;;;;;;0.30;0.30;;;;;;;19.95;100.00;96917.88;29395;218;63004;-54
2023/08/14 01:11:21;;;;;;;0.30;0.30;;;;;;;19.96;100.00;96913.16;29395;208;63009;-63
2023/08/14 01:12:18;;;;;;;0.30;0.30;;;;;;;19.96;100.00;96915.91;29395;197;63005;-54
2023/08/14 01:13:26;;;;;;;0.30;0.30;;;;;;;19.98;100.00;96924.63;29395;235;63009;-54
2023/08/14 01:14:26;;;;;;;0.30;0.30;;;;;;;20.00;100.00;96914.06;29395;207;63005;-63
2023/08/14 01:15:06;;;;;;;0.30;0.30;;;;;;;19.99;100.00;96912.44;29394;199;64013;-55
2023/08/14 01:15:44;;;;;;;0.30;0.30;;;;;;;19.98;100.00;96917.16;29377;225;125005;-54
2023/08/14 01:16:23;;;;;;;0.30;0.30;;;;;;;19.99;100.00;96924.28;29373;198;63023;-54
2023/08/14 01:17:01;;;;;;;0.30;0.30;;;;;;;19.98;100.00;96917.16;29395;231;63004;-55
2023/08/14 01:17:38;;;;;;;0.35;0.35;;;;;;;19.98;100.00;96922.66;29394;224;64013;-54
2023/08/14 01:18:12;;;;;;;0.50;0.50;;;;;;;19.97;100.00;96918.31;29395;211;63004;-54
2023/08/14 01:18:47;;;;;;;0.30;0.30;;;;;;;19.97;100.00;96923.81;29395;214;63008;-54
2023/08/14 01:19:29;;;;;;;0.30;0.30;;;;;;;19.98;100.00;96919.91;29395;248;63004;-62
2023/08/14 01:20:04;;;;;;;0.30;0.30;;;;;;;19.97;100.00;96923.81;29394;257;64014;-54
2023/08/14 01:20:37;;;;;;;0.30;0.30;;;;;;;19.98;100.00;96925.41;29395;238;63017;-54
2023/08/14 01:21:46;;;;;;;0.30;0.30;;;;;;;19.96;100.00;96930.47;29395;227;63009;-55
2023/08/14 01:22:54;;;;;;;0.30;0.30;;;;;;;19.97;100.00;96925.78;29395;355;63005;-54
2023/08/14 01:23:40;;;;;;;0.30;0.30;;;;;;;19.96;100.00;96941.50;29395;262;63009;-54
2023/08/14 01:24:26;;;;;;;0.30;0.30;;;;;;;19.96;100.00;96937.94;29395;239;63000;-54
2023/08/14 01:25:22;;;;;;;0.30;0.30;;;;;;;19.95;100.00;96945.41;29395;217;63009;-54
2023/08/14 01:25:54;;;;;;;0.30;0.30;;;;;;;19.96;100.00;96930.47;29394;282;64013;-54
2023/08/14 01:26:27;;;;;;;0.30;0.30;;;;;;;19.96;100.00;96936.00;29395;210;63007;-55
2023/08/14 01:27:02;;;;;;;0.30;0.30;;;;;;;19.96;100.00;96941.50;29395;218;63009;-54
2023/08/14 01:27:33;;;;;;;0.30;0.30;;;;;;;19.96;100.00;96949.75;29395;236;63001;-54
2023/08/14 01:28:06;;;;;;;0.30;0.30;;;;;;;19.97;100.00;96948.59;29395;217;63009;-62
2023/08/14 01:28:38;;;;;;;0.30;0.30;;;;;;;19.97;100.00;96942.31;29395;226;63005;-63
2023/08/14 01:29:10;;;;;;;0.30;0.30;;;;;;;19.97;100.00;96932.09;29394;202;64013;-54
2023/08/14 01:29:42;;;;;;;0.30;0.30;;;;;;;19.98;100.00;96950.22;29395;264;63005;-54
2023/08/14 01:30:15;;;;;;;0.30;0.30;;;;;;;19.97;100.00;96945.84;29395;301;63009;-54
2023/08/14 01:30:47;;;;;;;0.30;0.30;;;;;;;19.98;100.00;96949.41;29395;269;63005;-54
2023/08/14 01:31:18;;;;;;;0.30;0.30;;;;;;;19.96;100.00;96949.75;29395;202;63021;-54
2023/08/14 01:31:50;;;;;;;0.30;0.30;;;;;;;19.99;100.00;96956.53;29395;199;63004;-54
2023/08/14 01:32:21;;;;;;;0.30;0.30;;;;;;;19.99;100.00;96957.31;29395;223;63009;-54
2023/08/14 01:32:54;;;;;;;0.30;0.30;;;;;;;20.00;100.00;96964.44;29395;205;63004;-55
2023/08/14 01:33:25;;;;;;;0.30;0.30;;;;;;;20.00;100.00;96977.41;29395;202;63024;-54
2023/08/14 01:33:57;;;;;;;0.30;0.30;;;;;;;19.99;100.00;96979.34;29395;275;63004;-54
2023/08/14 01:34:28;;;;;;;0.30;0.30;;;;;;;19.98;100.00;96991.53;29394;315;64014;-63
2023/08/14 01:35:00;;;;;;;0.30;0.30;;;;;;;19.98;100.00;96996.22;29395;202;63005;-54
2023/08/14 01:35:46;;;;;;;0.30;0.30;;;;;;;19.96;100.00;97001.28;29395;242;63009;-64
2023/08/14 01:36:39;;;;;;;0.30;0.30;;;;;;;19.94;100.00;97009.09;29395;246;63005;-62
2023/08/14 01:37:36;;;;;;;0.30;0.30;;;;;;;19.96;100.00;97007.59;29395;288;63005;-54
2023/08/14 01:38:54;;;;;;;0.30;0.30;;;;;;;19.94;100.00;96998.87;29395;228;63009;-54
2023/08/14 01:39:36;;;;;;;0.30;0.30;;;;;;;20.03;100.00;97002.28;29395;244;63004;-54
2023/08/14 01:40:37;;;;;;;0.30;0.30;;;;;;;20.02;100.00;96984.16;29394;197;64013;-54
2023/08/14 01:41:31;;;;;;;0.30;0.30;;;;;;;20.15;100.00;96981.31;29439;390;63004;-54
2023/08/14 01:42:22;;;;;;;0.30;0.30;;;;;;;20.17;100.00;96979.03;29395;206;63009;-55
2023/08/14 01:43:00;;;;;;;0.30;0.30;;;;;;;20.15;100.00;96975.81;29417;209;63005;-64
2023/08/14 01:43:37;;;;;;;0.30;0.30;;;;;;;20.17;100.00;96973.50;29395;204;63005;-54
2023/08/14 01:44:11;;;;;;;0.30;0.30;;;;;;;20.19;100.00;96960.19;29395;264;63005;-68
2023/08/14 01:44:48;;;;;;;0.30;0.30;;;;;;;20.20;100.00;96959.03;29395;223;63009;-54
2023/08/14 01:45:22;;;;;;;0.30;0.30;;;;;;;20.17;100.00;96962.50;29394;243;64009;-53
2023/08/14 01:45:56;;;;;;;0.30;0.30;;;;;;;20.15;100.00;96953.78;29395;202;63017;-54
2023/08/14 01:46:31;;;;;;;0.30;0.30;;;;;;;20.13;100.00;96950.56;29395;248;63004;-55
2023/08/14 01:47:06;;;;;;;0.30;0.30;;;;;;;20.14;100.00;96952.19;29395;250;63009;-55
2023/08/14 01:47:41;;;;;;;0.30;0.30;;;;;;;20.17;100.00;96943.22;29394;281;64004;-63
2023/08/14 01:48:14;;;;;;;0.30;0.30;;;;;;;20.16;100.00;96936.09;29395;206;63009;-55
2023/08/14 01:48:49;;;;;;;0.30;0.30;;;;;;;20.16;100.00;96936.09;29395;235;63004;-54
2023/08/14 01:49:22;;;;;;;0.30;0.30;;;;;;;20.11;100.00;96925.34;29395;227;63008;-54
2023/08/14 01:49:56;;;;;;;0.30;0.30;;;;;;;20.06;100.00;96924.47;29395;208;63005;-62
2023/08/14 01:50:29;;;;;;;0.30;0.30;;;;;;;20.04;100.00;96921.25;29394;226;64014;-54
2023/08/14 01:51:02;;;;;;;0.30;0.30;;;;;;;20.03;100.00;96936.19;29395;213;63007;-54
2023/08/14 01:51:35;;;;;;;0.30;0.30;;;;;;;20.01;100.00;96932.19;29395;208;63009;-62
2023/08/14 01:52:08;;;;;;;0.30;0.30;;;;;;;20.01;100.00;96926.66;29395;220;63005;-55
2023/08/14 01:52:39;;;;;;;0.30;0.30;;;;;;;19.99;100.00;96929.78;29395;226;63009;-56
2023/08/14 01:53:11;;;;;;;0.30;0.30;;;;;;;19.97;100.00;96921.06;29395;233;63005;-55
2023/08/14 01:53:42;;;;;;;0.32;0.32;;;;;;;19.98;100.00;96928.19;29395;282;63009;-54
2023/08/14 01:54:13;;;;;;;0.30;0.30;;;;;;;19.98;100.00;96922.66;29395;241;63017;-54
2023/08/14 01:54:45;;;;;;;0.30;0.30;;;;;;;19.98;100.00;96928.19;29395;202;63009;-65
2023/08/14 01:55:16;;;;;;;0.30;0.30;;;;;;;19.99;100.00;96929.78;29395;241;63004;-62
2023/08/14 01:55:47;;;;;;;0.30;0.30;;;;;;;19.98;100.00;96933.69;29394;245;64013;-54
2023/08/14 01:56:18;;;;;;;0.30;0.30;;;;;;;19.95;100.00;96945.41;29395;244;63004;-54
2023/08/14 01:56:50;;;;;;;0.40;0.40;;;;;;;19.94;100.00;96943.81;29395;207;63020;-61
2023/08/14 01:57:21;;;;;;;0.30;0.30;;;;;;;19.89;100.00;96935.78;29394;219;64005;-55
2023/08/14 01:57:53;;;;;;;0.30;0.30;;;;;;;19.90;100.00;96937.41;29395;256;63009;-54
2023/08/14 01:58:24;;;;;;;0.30;0.30;;;;;;;19.90;100.00;96937.41;29395;264;63005;-63
2023/08/14 01:58:55;;;;;;;0.30;0.30;;;;;;;19.93;100.00;96930.37;29395;236;63009;-56
2023/08/14 01:59:45;;;;;;;0.30;0.30;;;;;;;19.91;100.00;96930.72;29395;197;63005;-65
2023/08/14 02:00:17;;;;;;;0.30;0.30;;;;;;;19.91;100.00;96932.69;29395;274;63026;-65
2023/08/14 02:00:48;;;;;;;0.30;0.30;;;;;;;19.88;100.00;96917.66;29394;245;64003;-55
2023/08/14 02:01:23;;;;;;;0.30;0.30;;;;;;;19.89;100.00;96924.78;29395;202;63009;-65
2023/08/14 02:01:54;;;;;;;0.37;0.37;;;;;;;19.90;100.00;96931.88;29395;244;63004;-63
2023/08/14 02:02:25;;;;;;;0.30;0.30;;;;;;;19.86;100.00;96914.47;29395;205;63009;-63
2023/08/14 02:02:57;;;;;;;0.30;0.30;;;;;;;19.84;100.00;96925.03;29395;253;63004;-63
2023/08/14 02:03:28;;;;;;;0.30;0.30;;;;;;;19.80;100.00;96921.37;29395;235;63009;-54
2023/08/14 02:04:00;;;;;;;0.30;0.30;;;;;;;19.78;100.00;96925.62;29395;223;63004;-64
2023/08/14 02:04:31;;;;;;;0.30;0.30;;;;;;;19.74;100.00;96929.13;29395;206;63008;-55
2023/08/14 02:05:03;;;;;;;0.30;0.30;;;;;;;19.72;100.00;96922.34;29395;200;63005;-54
2023/08/14 02:05:35;;;;;;;0.30;0.30;;;;;;;19.68;100.00;96919.50;29395;203;63009;-65
2023/08/14 02:06:07;;;;;;;0.30;0.30;;;;;;;19.67;100.00;96928.09;29394;222;64009;-63
2023/08/14 02:06:40;;;;;;;0.30;0.30;;;;;;;19.65;100.00;96930.41;29395;283;63009;-65
2023/08/14 02:07:12;;;;;;;0.30;0.30;;;;;;;19.64;100.00;96928.81;29395;249;63005;-62
2023/08/14 02:07:43;;;;;;;0.30;0.30;;;;;;;19.61;100.00;96924.00;29395;238;63009;-55
2023/08/14 02:08:14;;;;;;;0.30;0.30;;;;;;;19.60;100.00;96922.41;29395;218;63005;-64
2023/08/14 02:08:45;;;;;;;0.30;0.30;;;;;;;19.58;100.00;96917.25;29395;206;63009;-64
2023/08/14 02:09:17;;;;;;;0.30;0.30;;;;;;;19.57;100.00;96923.91;29395;212;63012;-63
2023/08/14 02:22:02;;;;;;;0.40;0.40;;;;;;;19.30;100.00;96892.44;88122;211;64005;-89
2023/08/14 02:23:16;;;;;;;0.30;0.30;;;;;;;19.25;100.00;96895.44;29394;202;64008;-91
2023/08/14 02:24:14;;;;;;;0.30;0.30;;;;;;;19.25;100.00;96889.94;29395;217;63004;-91
2023/08/14 02:24:54;;;;;;;0.30;0.30;;;;;;;19.26;100.00;96894.28;29395;257;63009;-91
2023/08/14 02:25:55;;;;;;;0.40;0.40;;;;;;;19.26;100.00;96897.03;29395;258;63005;-91
2023/08/14 02:26:42;;;;;;;0.30;0.30;;;;;;;19.24;100.00;96888.34;29395;216;63009;-90
2023/08/14 02:27:17;;;;;;;0.30;0.30;;;;;;;19.24;100.00;96899.34;29395;197;63005;-92
2023/08/14 02:27:49;;;;;;;0.30;0.30;;;;;;;19.24;100.00;96904.84;29395;211;63009;-91
2023/08/14 02:28:21;;;;;;;0.30;0.30;;;;;;;19.24;100.00;96896.59;29394;205;64009;-91
2023/08/14 02:29:04;;;;;;;0.30;0.30;;;;;;;19.24;100.00;96898.53;29395;229;63009;-91
2023/08/14 02:29:38;;;;;;;0.30;0.30;;;;;;;19.23;100.00;96897.72;29394;260;64004;-90
2023/08/14 02:30:29;;;;;;;0.40;0.40;;;;;;;19.21;100.00;96894.53;29394;228;64013;-90
2023/08/14 02:31:06;;;;;;;0.30;0.30;;;;;;;19.21;100.00;96893.72;29395;229;63004;-92
2023/08/14 02:31:45;;;;;;;0.40;0.40;;;;;;;19.22;100.00;96890.63;29395;221;63009;-91
2023/08/14 02:32:20;;;;;;;0.32;0.32;;;;;;;19.22;100.00;96890.63;29395;210;63005;-91
2023/08/14 02:32:56;;;;;;;0.40;0.40;;;;;;;19.23;100.00;96892.22;29395;221;63009;-90
2023/08/14 02:33:52;;;;;;;0.30;0.30;;;;;;;19.25;100.00;96889.94;29395;210;63005;-91
2023/08/14 02:34:56;;;;;;;0.30;0.30;;;;;;;19.29;100.00;96877.09;29395;210;63009;-90
2023/08/14 02:35:27;;;;;;;0.50;0.50;;;;;;;19.39;100.00;96873.03;29394;204;64009;-91
2023/08/14 02:36:00;;;;;;;0.30;0.30;;;;;;;19.36;100.00;96874.53;29395;365;63009;-92
2023/08/14 02:36:38;;;;;;;0.30;0.30;;;;;;;19.31;100.00;96872.03;29395;218;63004;-90
2023/08/14 02:37:14;;;;;;;0.40;0.40;;;;;;;19.29;100.00;96870.78;29395;218;63009;-91
2023/08/14 02:37:46;;;;;;;0.40;0.40;;;;;;;19.27;100.00;96865.62;29395;202;63004;-91
2023/08/14 02:38:20;;;;;;;0.40;0.40;;;;;;;19.24;100.00;96866.31;29395;281;63008;-91
2023/08/14 02:38:54;;;;;;;0.40;0.40;;;;;;;19.21;100.00;96867.03;29395;275;63005;-90
2023/08/14 02:39:36;;;;;;;0.40;0.40;;;;;;;19.17;100.00;96860.63;29395;217;63009;-92
2023/08/14 02:40:13;;;;;;;0.40;0.40;;;;;;;19.18;100.00;96870.47;29395;268;63015;-91
2023/08/14 02:40:47;;;;;;;14.70;13.80;;;;;;;19.16;100.00;96861.75;29384;259;66013;-90
2023/08/14 02:41:20;;;;;;;0.40;0.40;;;;;;;19.19;100.00;96863.00;29395;256;63005;-90
2023/08/14 02:41:51;;;;;;;0.40;0.40;;;;;;;19.23;100.00;96875.72;29395;234;63015;-90
2023/08/14 02:42:22;;;;;;;0.32;0.32;;;;;;;19.26;100.00;96864.03;29395;227;63005;-89
2023/08/14 02:43:00;;;;;;;0.40;0.40;;;;;;;19.27;100.00;96865.62;29395;223;63013;-89
2023/08/14 02:43:33;;;;;;;0.30;0.30;;;;;;;19.26;100.00;96869.53;29395;206;63004;-90
2023/08/14 02:44:08;;;;;;;0.75;0.75;;;;;;;19.24;100.00;96871.03;29395;210;63009;-89
2023/08/14 02:44:39;;;;;;;0.30;0.30;;;;;;;19.20;100.00;96870.91;29395;213;63004;-89
2023/08/14 02:45:12;;;;;;;0.40;0.40;;;;;;;19.17;100.00;96868.87;29395;290;63009;-89
2023/08/14 02:45:53;;;;;;;0.30;0.30;;;;;;;19.15;100.00;96867.59;29395;210;63004;-89
2023/08/14 02:46:25;;;;;;;0.30;0.30;;;;;;;19.13;100.00;96861.66;29394;238;64014;-92
2023/08/14 02:47:00;;;;;;;0.30;0.30;;;;;;;19.06;100.00;96865.00;29395;274;63005;-90
2023/08/14 02:47:38;;;;;;;0.30;0.30;;;;;;;19.02;100.00;96866.88;29395;231;63009;-90
2023/08/14 02:48:14;;;;;;;0.40;0.40;;;;;;;19.06;100.00;96867.75;29395;261;63005;-91
2023/08/14 02:48:46;;;;;;;0.30;0.30;;;;;;;19.04;100.00;96861.81;29395;210;63009;-87
2023/08/14 02:49:18;;;;;;;0.40;0.40;;;;;;;19.05;100.00;96857.91;29395;266;63005;-89
2023/08/14 02:49:49;;;;;;;0.30;0.30;;;;;;;19.01;100.00;96857.00;29395;252;63009;-88
2023/08/14 02:50:22;;;;;;;0.40;0.40;;;;;;;19.00;100.00;96856.22;29395;236;63005;-87
2023/08/14 02:50:57;;;;;;;0.30;0.30;;;;;;;18.99;100.00;96849.12;29395;202;63009;-89
2023/08/14 02:51:28;;;;;;;0.30;0.30;;;;;;;18.98;100.00;96853.00;29394;213;64009;-87
2023/08/14 02:52:02;;;;;;;0.88;0.88;;;;;;;18.95;100.00;96847.41;29395;228;63009;-89
2023/08/14 02:52:33;;;;;;;0.30;0.30;;;;;;;18.95;100.00;96850.16;29395;204;63004;-90
2023/08/14 02:53:05;;;;;;;0.40;0.40;;;;;;;18.92;100.00;96848.09;29395;256;63008;-90
2023/08/14 02:53:37;;;;;;;0.40;0.40;;;;;;;18.88;100.00;96841.69;29395;245;63004;-88
2023/08/14 02:54:11;;;;;;;0.30;0.30;;;;;;;18.86;100.00;96846.72;29395;275;63009;-91
2023/08/14 02:54:44;;;;;;;0.35;0.35;;;;;;;18.82;100.00;96845.81;29395;238;63005;-89
2023/08/14 02:55:20;;;;;;;0.40;0.40;;;;;;;18.77;100.00;96851.56;29395;211;63015;-89
2023/08/14 02:55:53;;;;;;;0.30;0.30;;;;;;;18.71;100.00;96848.25;29395;222;63005;-89
2023/08/14 02:56:25;;;;;;;0.30;0.30;;;;;;;18.67;100.00;96861.91;29395;221;63009;-90